Time;durP1;ratioP1;P1;durP2;ratioP2;P2;SDS_P1;SDS_P2;PMS_P1;PMS_P2;Temp;Humidity;BMP_temperature;BMP_pressure;BME280_temperature;BME280_humidity;BME280_pressure;Samples;Min_cycle;Max_cycle;Signal;HPM_P1;HPM_P2
2023/08/18 15:26:34;;;;;;;37.10;33.20;;;;;;;25.92;76.36;101374.34;5104070;27;1367924;-73
2023/08/18 15:29:01;;;;;;;36.45;32.78;;;;;;;25.75;76.35;101374.63;5099302;28;20118;-73
2023/08/18 15:31:27;;;;;;;35.75;32.15;;;;;;;25.65;75.94;101362.78;5127084;28;20023;-76
2023/08/18 15:33:53;;;;;;;36.38;32.50;;;;;;;25.54;76.64;101363.50;5091160;28;20040;-75
2023/08/18 15:36:19;;;;;;;38.15;34.20;;;;;;;25.43;77.48;101356.19;5077196;28;20035;-77
2023/08/18 15:38:44;;;;;;;41.35;37.17;;;;;;;25.48;76.41;101359.41;5084461;28;20033;-79
2023/08/18 15:41:10;;;;;;;40.30;36.10;;;;;;;25.46;77.54;101360.47;5091367;28;20490;-69
2023/08/18 15:43:35;;;;;;;36.97;33.05;;;;;;;25.63;77.40;101356.66;5070642;28;20403;-68
2023/08/18 15:46:02;;;;;;;38.05;34.30;;;;;;;25.55;77.77;101357.19;5063074;28;20468;-68
2023/08/18 15:48:28;;;;;;;42.22;38.03;;;;;;;25.68;78.00;101354.53;5087098;28;20027;-68
2023/08/18 15:50:53;;;;;;;38.88;34.70;;;;;;;25.54;77.02;101361.69;5071030;28;20165;-69
2023/08/18 15:53:19;;;;;;;39.47;35.58;;;;;;;25.59;76.27;101348.81;5079730;28;20039;-69
2023/08/18 15:55:44;;;;;;;39.78;35.65;;;;;;;25.65;76.29;101349.38;5091472;28;20020;-71
2023/08/18 15:58:15;;;;;;;38.90;34.95;;;;;;;25.69;76.12;101356.25;5080518;28;20040;-73
2023/08/18 16:00:41;;;;;;;37.65;33.75;;;;;;;25.76;77.01;101345.00;5086410;28;20024;-69
2023/08/18 16:03:07;;;;;;;39.78;35.88;;;;;;;25.91;76.98;101340.38;5087288;28;20045;-69
2023/08/18 16:05:33;;;;;;;38.53;34.47;;;;;;;26.03;75.65;101337.84;5086549;28;20392;-69
2023/08/18 16:07:59;;;;;;;36.85;33.25;;;;;;;26.12;75.59;101345.28;5091463;28;20144;-69
2023/08/18 16:10:28;;;;;;;37.50;33.60;;;;;;;26.19;75.80;101346.56;5065769;28;20060;-69
2023/08/18 16:12:53;;;;;;;37.15;33.33;;;;;;;26.25;76.79;101338.09;5104720;28;20027;-69
2023/08/18 16:15:19;;;;;;;34.83;31.25;;;;;;;26.23;75.91;101340.03;5059638;28;20024;-69
2023/08/18 16:17:44;;;;;;;38.92;35.08;;;;;;;26.14;76.11;101323.69;5069156;28;20211;-69
2023/08/18 16:20:10;;;;;;;38.55;34.85;;;;;;;26.17;76.90;101337.75;5069442;28;20021;-72
2023/08/18 16:22:37;;;;;;;37.67;33.78;;;;;;;26.15;74.89;101337.00;5084426;28;20090;-72
2023/08/18 16:25:03;;;;;;;38.63;34.60;;;;;;;26.11;74.20;101335.50;5071397;28;20449;-72
2023/08/18 16:27:49;;;;;;;37.55;33.92;;;;;;;26.19;75.65;101338.53;5104004;28;20112;-71
2023/08/18 16:30:15;;;;;;;38.25;34.53;;;;;;;26.19;75.84;101327.78;5113956;28;20040;-68
2023/08/18 16:32:41;;;;;;;39.85;35.75;;;;;;;26.09;75.62;101316.81;5080283;28;20056;-68
2023/08/18 16:35:07;;;;;;;39.08;35.20;;;;;;;26.11;75.03;101316.72;5086688;28;20234;-71
2023/08/18 16:37:33;;;;;;;39.70;35.72;;;;;;;26.05;74.55;101319.84;5085328;28;20035;-72
2023/08/18 16:39:59;;;;;;;37.42;33.53;;;;;;;25.97;75.27;101311.41;5075224;28;20031;-72
2023/08/18 16:42:25;;;;;;;37.50;33.80;;;;;;;25.92;76.62;101317.94;5092033;28;20118;-71
2023/08/18 16:44:51;;;;;;;37.80;33.90;;;;;;;25.92;76.70;101320.63;5078105;28;20404;-72
2023/08/18 16:47:16;;;;;;;37.85;33.95;;;;;;;25.89;76.16;101320.84;5087306;28;20043;-72
2023/08/18 16:49:42;;;;;;;37.33;33.50;;;;;;;25.86;77.67;101326.44;5080614;28;20032;-72
2023/08/18 16:52:08;;;;;;;36.78;33.03;;;;;;;25.84;77.24;101320.28;5068163;28;20199;-71
2023/08/18 16:54:34;;;;;;;37.97;33.97;;;;;;;25.77;78.14;101321.69;5073695;28;20017;-71
2023/08/18 16:57:00;;;;;;;38.00;34.15;;;;;;;25.83;78.30;101310.56;5071621;28;20029;-72
2023/08/18 16:59:27;;;;;;;38.40;34.60;;;;;;;25.80;78.38;101310.72;5350917;23;20046;-69
2023/08/18 17:04:28;;;;;;;39.97;35.97;;;;;;;25.83;77.95;101306.97;5158241;22;20057;-71
2023/08/18 17:06:57;;;;;;;38.40;34.47;;;;;;;25.87;77.60;101306.66;4999953;28;20492;-71
2023/08/18 17:09:22;;;;;;;37.78;34.05;;;;;;;25.81;77.67;101296.34;5000239;28;20120;-71
2023/08/18 17:11:48;;;;;;;37.88;33.97;;;;;;;25.89;78.00;101310.13;5000238;28;20097;-71
2023/08/18 17:14:14;;;;;;;37.30;33.65;;;;;;;25.85;77.23;101307.75;5015356;28;20091;-71
2023/08/18 17:16:44;;;;;;;37.58;33.78;;;;;;;25.85;78.10;101302.38;4983695;28;20101;-71
2023/08/18 17:19:10;;;;;;;38.78;34.88;;;;;;;25.82;77.29;101306.13;5000731;28;20057;-71
2023/08/18 17:21:38;;;;;;;38.08;34.38;;;;;;;25.74;77.77;101300.44;4999883;28;20030;-71
2023/08/18 17:24:04;;;;;;;39.22;35.25;;;;;;;25.60;78.61;101304.03;5016157;28;20098;-71
2023/08/18 17:26:30;;;;;;;40.03;35.97;;;;;;;25.57;79.25;101304.25;4983762;28;20033;-71
2023/08/18 17:28:55;;;;;;;38.35;34.67;;;;;;;25.54;78.82;101302.66;4983240;28;20060;-71
2023/08/18 17:31:21;;;;;;;38.17;34.53;;;;;;;25.51;78.64;101296.63;4983639;28;20025;-71
2023/08/18 17:33:47;;;;;;;38.88;35.10;;;;;;;25.44;78.80;101298.88;4999780;28;20084;-71
2023/08/18 17:36:14;;;;;;;39.20;35.20;;;;;;;25.40;79.48;101298.22;4999376;28;20033;-71
2023/08/18 17:38:40;;;;;;;43.88;37.45;;;;;;;25.34;80.70;101298.66;4999583;28;20037;-71
2023/08/18 17:41:05;;;;;;;41.83;37.92;;;;;;;25.35;81.07;101303.03;4983599;28;20569;-71
2023/08/18 17:43:33;;;;;;;39.92;36.08;;;;;;;25.41;81.12;101310.69;4999180;28;20443;-72
2023/08/18 17:46:00;;;;;;;39.47;35.75;;;;;;;25.41;81.08;101307.13;4999750;28;20032;-72
2023/08/18 17:48:26;;;;;;;41.35;37.35;;;;;;;25.38;81.47;101310.00;4982452;28;20037;-71
2023/08/18 17:50:58;;;;;;;38.83;35.13;;;;;;;25.44;80.82;101309.59;4983336;28;20060;-72
2023/08/18 17:53:24;;;;;;;39.33;35.63;;;;;;;25.39;80.97;101306.38;5015194;28;20417;-72
2023/08/18 17:55:49;;;;;;;40.92;36.88;;;;;;;25.19;82.57;101302.31;5015715;28;20032;-71
2023/08/18 17:58:15;;;;;;;39.55;35.72;;;;;;;25.14;82.47;101302.63;4982447;28;20048;-71
2023/08/18 18:00:43;;;;;;;39.42;35.53;;;;;;;25.16;81.27;101306.03;4983211;28;20029;-71
2023/08/18 18:03:08;;;;;;;38.78;34.97;;;;;;;25.10;81.70;101301.09;4988289;28;20059;-71
2023/08/18 18:05:34;;;;;;;35.83;32.40;;;;;;;25.06;81.90;101303.09;4973295;28;20515;-71
2023/08/18 18:07:59;;;;;;;36.38;32.88;;;;;;;25.02;82.20;101301.59;4972858;28;20034;-71
2023/08/18 18:10:25;;;;;;;38.33;34.53;;;;;;;25.00;82.16;101289.25;4957137;28;20470;-71
2023/08/18 18:12:50;;;;;;;37.05;33.63;;;;;;;24.96;82.33;101288.59;4956564;28;20027;-71
2023/08/18 18:15:16;;;;;;;37.70;34.08;;;;;;;24.85;83.07;101294.63;4972835;28;20065;-71
2023/08/18 18:17:41;;;;;;;36.25;32.67;;;;;;;24.83;83.00;101285.84;4956838;28;20459;-71
2023/08/18 18:20:10;;;;;;;35.20;31.90;;;;;;;24.73;83.38;101274.00;4956887;28;20035;-71
2023/08/18 18:22:35;;;;;;;34.97;31.77;;;;;;;24.67;84.12;101280.63;4972602;28;20023;-71
2023/08/18 18:25:04;;;;;;;35.08;31.90;;;;;;;24.65;84.18;101284.34;4972781;28;20041;-71
2023/08/18 18:27:32;;;;;;;36.60;33.22;;;;;;;24.60;84.65;101281.97;4972836;28;20366;-71
2023/08/18 18:29:57;;;;;;;37.90;34.03;;;;;;;24.55;84.84;101279.56;4972134;28;20049;-71
2023/08/18 18:32:23;;;;;;;36.35;32.85;;;;;;;24.58;84.18;101274.97;4956773;28;20042;-71
2023/08/18 18:34:48;;;;;;;35.63;32.35;;;;;;;24.52;84.74;101277.09;4972876;28;20046;-71
2023/08/18 18:37:14;;;;;;;37.13;33.67;;;;;;;24.45;85.25;101266.84;4956376;28;20023;-71
2023/08/18 18:39:39;;;;;;;38.05;34.47;;;;;;;24.41;85.41;101270.69;4956488;28;20030;-71
2023/08/18 18:42:05;;;;;;;37.33;33.92;;;;;;;24.35;85.56;101263.88;4972543;28;20040;-71
2023/08/18 18:44:31;;;;;;;37.75;34.13;;;;;;;24.34;85.82;101267.53;4955751;28;20130;-71
2023/08/18 18:46:57;;;;;;;38.40;34.90;;;;;;;24.19;85.85;101278.25;4972436;28;20478;-71
2023/08/18 18:49:22;;;;;;;38.75;35.10;;;;;;;24.15;86.47;101292.78;4972426;28;20027;-71
2023/08/18 18:51:48;;;;;;;37.22;33.70;;;;;;;24.23;85.94;101288.78;4956029;28;20097;-71
2023/08/18 18:54:14;;;;;;;36.97;33.47;;;;;;;24.12;85.85;101287.63;4956261;28;20109;-71
2023/08/18 18:56:42;;;;;;;38.53;35.03;;;;;;;23.83;87.29;101282.22;4956544;28;20121;-71
2023/08/18 18:59:07;;;;;;;36.80;33.17;;;;;;;23.72;87.25;101284.69;4971542;28;20078;-71
2023/08/18 19:01:33;;;;;;;36.58;33.08;;;;;;;23.65;87.58;101286.84;4956213;28;20073;-71
2023/08/18 19:03:59;;;;;;;36.13;32.47;;;;;;;23.50;87.92;101277.94;4957908;28;20137;-71
2023/08/18 19:06:25;;;;;;;39.17;35.45;;;;;;;23.36;89.74;101283.25;4971982;28;20364;-71
2023/08/18 19:08:50;;;;;;;37.08;33.75;;;;;;;23.38;89.28;101292.03;4940145;28;20038;-71
2023/08/18 19:11:15;;;;;;;36.60;33.00;;;;;;;23.17;89.35;101311.03;4940248;28;20073;-71
2023/08/18 19:13:42;;;;;;;37.10;33.60;;;;;;;23.10;90.30;101304.28;4955439;28;20517;-71
2023/08/18 19:16:08;;;;;;;33.97;30.85;;;;;;;22.88;90.85;101304.63;4972115;28;20042;-71
2023/08/18 19:18:33;;;;;;;32.72;29.80;;;;;;;22.75;91.64;101309.81;4956300;28;20031;-71
2023/08/18 19:21:00;;;;;;;38.78;35.15;;;;;;;22.86;91.89;101306.53;4956093;28;20039;-71
2023/08/18 19:23:25;;;;;;;41.30;37.70;;;;;;;22.77;92.42;101313.28;4955755;28;20031;-71
2023/08/18 19:25:51;;;;;;;40.10;36.45;;;;;;;22.83;92.67;101312.91;4971992;28;20073;-71
2023/08/18 19:28:17;;;;;;;37.97;34.58;;;;;;;22.83;92.68;101301.38;4949308;28;20027;-71
2023/08/18 19:30:43;;;;;;;38.83;35.45;;;;;;;22.89;93.36;101302.84;4980244;28;20042;-71
2023/08/18 19:33:08;;;;;;;38.20;34.72;;;;;;;22.92;93.71;101302.66;4970569;28;20108;-71
2023/08/18 19:35:34;;;;;;;38.42;34.75;;;;;;;22.79;94.26;101295.34;4955675;28;20093;-71
2023/08/18 19:37:59;;;;;;;38.83;35.22;;;;;;;22.72;94.78;101293.09;4971733;28;20027;-71
2023/08/18 19:40:24;;;;;;;40.22;36.53;;;;;;;22.67;95.01;101294.22;4969351;28;20390;-71
2023/08/18 19:42:50;;;;;;;39.40;35.70;;;;;;;22.83;95.67;101288.88;4966054;28;20061;-71
2023/08/18 19:45:15;;;;;;;40.95;37.20;;;;;;;22.73;95.47;101284.13;4954963;28;20043;-71
2023/08/18 19:47:43;;;;;;;39.22;35.65;;;;;;;22.78;96.05;101279.38;4973063;28;20041;-71
2023/08/18 19:50:08;;;;;;;39.95;36.25;;;;;;;22.75;96.39;101272.41;4971294;28;20242;-71
2023/08/18 19:52:34;;;;;;;43.67;39.20;;;;;;;22.74;96.57;101276.03;4974546;28;20478;-71
2023/08/18 19:55:49;;;;;;;44.28;40.15;;;;;;;22.79;96.06;101279.31;4973238;28;20034;-70
2023/08/18 19:58:15;;;;;;;44.85;40.70;;;;;;;22.76;96.29;101274.13;4981211;28;20442;-71
2023/08/18 20:00:41;;;;;;;44.35;40.25;;;;;;;22.66;97.22;101278.28;4962882;28;20471;-71
2023/08/18 20:03:08;;;;;;;43.40;39.50;;;;;;;22.70;97.32;101274.50;4985670;28;20524;-71
2023/08/18 20:05:34;;;;;;;42.92;39.15;;;;;;;22.65;97.31;101274.72;5013434;28;20038;-71
2023/08/18 20:08:00;;;;;;;44.67;40.42;;;;;;;22.65;97.49;101272.06;4997611;28;20680;-71
2023/08/18 20:10:26;;;;;;;45.95;41.85;;;;;;;22.62;97.77;101272.22;5021260;28;20033;-71
2023/08/18 20:12:51;;;;;;;43.92;39.92;;;;;;;22.60;98.21;101278.63;5019389;28;20025;-71
2023/08/18 20:15:16;;;;;;;43.80;39.47;;;;;;;22.56;98.48;101277.06;4987240;28;20037;-71
2023/08/18 20:17:42;;;;;;;48.10;43.72;;;;;;;22.47;98.76;101273.94;4989809;28;20034;-71
2023/08/18 20:20:09;;;;;;;48.50;43.85;;;;;;;22.46;99.10;101272.22;5013312;28;20120;-71
2023/08/18 20:22:57;;;;;;;46.20;41.87;;;;;;;22.52;98.69;101276.34;4976298;28;20433;-71
2023/08/18 20:25:23;;;;;;;42.67;38.85;;;;;;;22.36;99.72;101278.16;4998569;28;20030;-71
2023/08/18 20:27:48;;;;;;;39.78;36.03;;;;;;;22.41;99.57;101274.28;4993889;28;20102;-71
2023/08/18 20:30:14;;;;;;;40.95;37.25;;;;;;;22.38;99.01;101282.44;5001427;28;20175;-71
2023/08/18 20:32:39;;;;;;;38.78;35.15;;;;;;;22.38;98.63;101276.25;5022208;28;20088;-71
2023/08/18 20:35:05;;;;;;;40.10;36.38;;;;;;;22.41;99.52;101274.28;5000325;28;20026;-69
2023/08/18 20:37:31;;;;;;;39.40;35.80;;;;;;;22.42;99.66;101267.97;4988685;28;20120;-69
2023/08/18 20:39:56;;;;;;;42.00;38.03;;;;;;;22.43;99.91;101272.38;4992413;28;20029;-69
2023/08/18 20:42:23;;;;;;;39.33;35.65;;;;;;;22.34;99.96;101272.91;5023871;28;20048;-69
2023/08/18 20:44:48;;;;;;;38.85;35.35;;;;;;;22.40;100.00;101269.88;5014142;28;20411;-69
2023/08/18 20:47:14;;;;;;;39.47;35.75;;;;;;;22.37;100.00;101277.19;4992421;28;20028;-68
2023/08/18 20:49:40;;;;;;;37.03;33.72;;;;;;;22.36;100.00;101271.00;5012441;28;20036;-69
2023/08/18 20:52:05;;;;;;;37.92;34.55;;;;;;;22.41;100.00;101266.28;5011298;28;20048;-69
2023/08/18 20:54:31;;;;;;;38.63;35.00;;;;;;;22.36;100.00;101268.34;4985940;28;20433;-69
2023/08/18 20:56:57;;;;;;;38.53;34.92;;;;;;;22.33;100.00;101265.84;5002047;28;20385;-69
2023/08/18 20:59:23;;;;;;;35.45;32.08;;;;;;;22.25;99.73;101268.00;5002292;28;20026;-69
2023/08/18 21:01:51;;;;;;;35.97;32.75;;;;;;;22.23;100.00;101261.91;5003166;28;20123;-69
2023/08/18 21:04:17;;;;;;;36.78;33.47;;;;;;;22.26;100.00;101256.41;4993993;28;20054;-69
2023/08/18 21:06:42;;;;;;;36.35;33.15;;;;;;;22.12;100.00;101263.34;4981601;28;20038;-69
2023/08/18 21:09:08;;;;;;;36.15;32.80;;;;;;;22.11;100.00;101260.75;4975193;28;20057;-69
2023/08/18 21:11:33;;;;;;;35.38;32.17;;;;;;;22.10;100.00;101254.56;4985208;28;20042;-69
2023/08/18 21:13:59;;;;;;;36.45;33.28;;;;;;;22.07;100.00;101248.53;4985747;28;20038;-69
2023/08/18 21:16:25;;;;;;;36.53;33.17;;;;;;;22.07;100.00;101252.06;4964312;28;20033;-68
2023/08/18 21:18:51;;;;;;;38.05;34.65;;;;;;;22.04;100.00;101254.91;4972505;28;20438;-69
2023/08/18 21:21:16;;;;;;;37.90;34.40;;;;;;;21.99;100.00;101251.59;4990462;28;20096;-69
2023/08/18 21:23:41;;;;;;;36.47;33.17;;;;;;;21.97;100.00;101256.16;4970189;28;20081;-71
2023/08/18 21:26:11;;;;;;;36.38;33.05;;;;;;;21.98;100.00;101256.09;4974119;28;20088;-71
2023/08/18 21:28:37;;;;;;;37.25;33.78;;;;;;;21.92;100.00;101248.41;4990249;28;20095;-71
2023/08/18 21:31:03;;;;;;;36.10;33.00;;;;;;;21.94;100.00;101251.00;4973592;28;20092;-71
2023/08/18 21:33:30;;;;;;;36.65;33.35;;;;;;;21.89;100.00;101256.56;4980391;28;20034;-71
2023/08/18 21:35:55;;;;;;;35.53;32.33;;;;;;;21.92;100.00;101248.41;4971590;28;20085;-71
2023/08/18 21:38:21;;;;;;;37.08;33.63;;;;;;;21.93;100.00;101247.44;4963412;28;20034;-71
2023/08/18 21:40:55;;;;;;;35.40;32.15;;;;;;;21.92;100.00;101255.53;5027662;23;20068;-68
2023/08/18 21:45:59;;;;;;;33.78;30.67;;;;;;;21.94;100.00;101248.34;3336658;26;20049;-71
2023/08/18 21:48:26;;;;;;;33.67;30.67;;;;;;;21.98;100.00;101244.56;5028548;28;20507;-71
2023/08/18 21:53:26;;;;;;;32.85;29.85;;;;;;;22.02;100.00;101238.09;5350534;22;20042;-69
2023/08/18 21:55:58;;;;;;;30.73;28.02;;;;;;;21.95;100.00;101234.03;5252264;22;20053;-70
2023/08/18 21:58:24;;;;;;;30.80;28.25;;;;;;;21.96;100.00;101238.41;5137062;22;20054;-71
2023/08/18 22:00:49;;;;;;;32.38;29.58;;;;;;;21.98;100.00;101229.41;4992905;28;20441;-71
2023/08/18 22:03:14;;;;;;;31.17;28.48;;;;;;;22.00;100.00;101240.00;4957702;28;20413;-71
2023/08/18 22:05:40;;;;;;;31.17;28.35;;;;;;;22.00;100.00;101236.47;4977669;28;20077;-71
2023/08/18 22:10:40;;;;;;;30.35;27.73;;;;;;;21.96;100.00;101225.94;5009926;23;20057;-71
2023/08/18 22:13:06;;;;;;;31.50;28.63;;;;;;;21.92;100.00;101232.41;4959132;28;20030;-71
2023/08/18 22:15:32;;;;;;;28.85;26.05;;;;;;;21.92;100.00;101234.19;4974469;28;20133;-71
2023/08/18 22:17:59;;;;;;;30.52;27.77;;;;;;;21.89;100.00;101231.69;4972115;28;20088;-71
2023/08/18 22:20:24;;;;;;;30.17;27.60;;;;;;;21.84;100.00;101233.72;4984504;28;20038;-71
2023/08/18 22:22:50;;;;;;;30.63;27.75;;;;;;;21.87;100.00;101234.44;4944455;28;20373;-71
2023/08/18 22:25:16;;;;;;;30.92;27.80;;;;;;;21.89;100.00;101229.03;4949865;28;20023;-71
2023/08/18 22:27:41;;;;;;;31.15;28.50;;;;;;;21.78;100.00;101222.47;4966276;28;20151;-71
2023/08/18 22:30:09;;;;;;;30.52;27.83;;;;;;;21.80;100.00;101225.88;4949028;28;20029;-71
2023/08/18 22:32:35;;;;;;;29.92;27.45;;;;;;;21.75;100.00;101222.63;4964841;28;20039;-71
2023/08/18 22:35:01;;;;;;;31.13;28.23;;;;;;;21.76;100.00;101216.31;4963321;28;20343;-71
2023/08/18 22:37:27;;;;;;;28.75;26.27;;;;;;;21.80;100.00;101220.56;4961979;28;20125;-71
2023/08/18 22:39:52;;;;;;;29.65;26.98;;;;;;;21.75;100.00;101214.63;4981450;28;20041;-71
2023/08/18 22:42:18;;;;;;;29.60;27.15;;;;;;;21.79;100.00;101216.19;4955396;28;20492;-71
2023/08/18 22:44:44;;;;;;;28.65;25.98;;;;;;;21.82;100.00;101211.63;4951155;28;20489;-71
2023/08/18 22:47:14;;;;;;;29.15;26.55;;;;;;;21.87;100.00;101214.91;4951436;28;20039;-71
2023/08/18 22:49:45;;;;;;;27.48;25.25;;;;;;;21.87;100.00;101212.25;4973579;28;20089;-71
2023/08/18 22:52:11;;;;;;;29.00;26.35;;;;;;;21.87;100.00;101210.44;4981259;28;20058;-71
2023/08/18 22:54:40;;;;;;;27.05;24.45;;;;;;;21.84;100.00;101212.38;4974637;28;20022;-71
2023/08/18 22:57:10;;;;;;;28.30;26.00;;;;;;;21.78;100.00;101201.13;4940338;28;20032;-71
2023/08/18 22:59:39;;;;;;;27.25;24.52;;;;;;;21.78;100.00;101201.13;4993284;28;20485;-71
2023/08/18 23:02:04;;;;;;;28.23;25.73;;;;;;;21.76;100.00;101196.81;5005065;28;20068;-71
2023/08/18 23:04:30;;;;;;;26.70;24.40;;;;;;;21.82;100.00;101198.28;4979976;28;20124;-71
2023/08/18 23:06:56;;;;;;;25.38;23.25;;;;;;;21.84;100.00;101196.38;4967171;28;20030;-70
2023/08/18 23:09:22;;;;;;;26.05;23.63;;;;;;;21.79;100.00;101196.63;4983198;28;20057;-70
2023/08/18 23:11:47;;;;;;;25.85;23.35;;;;;;;21.85;100.00;101196.31;4977734;28;20650;-70
2023/08/18 23:14:13;;;;;;;24.63;22.35;;;;;;;21.85;100.00;101198.13;4970238;28;20042;-70
2023/08/18 23:16:39;;;;;;;24.92;22.70;;;;;;;21.79;100.00;101197.53;4976413;28;20033;-71
2023/08/18 23:19:06;;;;;;;26.45;24.25;;;;;;;21.72;100.00;101197.91;4979184;28;20374;-70
2023/08/18 23:21:32;;;;;;;25.08;22.98;;;;;;;21.71;100.00;101204.22;4993635;28;20486;-70
2023/08/18 23:23:58;;;;;;;24.27;22.17;;;;;;;21.65;100.00;101193.84;4983737;28;20128;-71
2023/08/18 23:26:23;;;;;;;24.92;22.80;;;;;;;21.71;100.00;101197.06;4996564;28;20026;-70
2023/08/18 23:28:49;;;;;;;25.90;23.70;;;;;;;21.71;100.00;101188.19;4948574;28;20045;-70
2023/08/18 23:31:14;;;;;;;26.00;23.58;;;;;;;21.68;100.00;101189.22;4962875;28;20451;-71
2023/08/18 23:33:40;;;;;;;27.08;24.42;;;;;;;21.59;100.00;101185.25;4969928;28;20037;-70
2023/08/18 23:36:07;;;;;;;24.83;22.73;;;;;;;21.56;100.00;101190.69;4963372;28;20515;-71
2023/08/18 23:38:37;;;;;;;26.33;23.70;;;;;;;21.54;100.00;101183.75;4986039;28;20033;-71
2023/08/18 23:41:03;;;;;;;26.23;24.00;;;;;;;21.50;100.00;101169.66;4987390;28;20096;-70
2023/08/18 23:43:29;;;;;;;27.42;24.92;;;;;;;21.51;100.00;101175.88;4973860;28;20427;-70
2023/08/18 23:46:02;;;;;;;26.63;24.23;;;;;;;21.45;100.00;101179.72;4969746;28;20030;-70
2023/08/18 23:48:31;;;;;;;26.60;24.13;;;;;;;21.33;100.00;101173.22;4948350;28;20052;-70
2023/08/18 23:50:56;;;;;;;28.52;25.83;;;;;;;21.40;100.00;101173.78;5003698;28;20025;-70
2023/08/18 23:53:22;;;;;;;27.77;25.23;;;;;;;21.37;100.00;101168.59;4971433;28;20030;-70
2023/08/18 23:55:47;;;;;;;27.00;24.25;;;;;;;21.28;100.00;101170.78;4964890;28;20030;-70
2023/08/18 23:58:13;;;;;;;27.60;25.20;;;;;;;21.28;100.00;101175.28;4956540;28;20523;-70
